Time;durP1;ratioP1;P1;durP2;ratioP2;P2;SDS_P1;SDS_P2;PMS_P1;PMS_P2;Temp;Humidity;BMP_temperature;BMP_pressure;BME280_temperature;BME280_humidity;BME280_pressure;Samples;Min_cycle;Max_cycle;Signal;HPM_P1;HPM_P2
2023/09/25 00:00:32;;;;;;;3.17;1.92;;;12.10;99.90;;;;;;5070136;28;20120;-59
2023/09/25 00:02:59;;;;;;;7.22;2.63;;;12.10;99.90;;;;;;5065662;28;20087;-59
2023/09/25 00:05:26;;;;;;;4.68;2.55;;;12.00;99.90;;;;;;5063876;28;20419;-57
2023/09/25 00:07:51;;;;;;;;;;;12.00;99.90;;;;;;5067726;28;20040;-58
2023/09/25 00:10:17;;;;;;;3.15;2.20;;;11.90;99.90;;;;;;5069869;28;19920;-59
2023/09/25 00:12:44;;;;;;;3.53;2.45;;;11.90;99.90;;;;;;5065975;28;20036;-58
2023/09/25 00:15:10;;;;;;;4.05;2.45;;;11.90;99.90;;;;;;5066493;28;20756;-58
2023/09/25 00:17:36;;;;;;;11.48;2.95;;;11.90;99.90;;;;;;5070414;28;20056;-58
2023/09/25 00:20:04;;;;;;;3.33;2.78;;;11.90;99.90;;;;;;5062575;28;20506;-60
2023/09/25 00:22:30;;;;;;;6.60;3.15;;;11.90;99.90;;;;;;5069365;28;20032;-59
2023/09/25 00:24:56;;;;;;;;;;;11.90;99.90;;;;;;5066153;28;20044;-57
2023/09/25 00:27:23;;;;;;;4.00;2.55;;;12.00;99.90;;;;;;5067069;28;19927;-58
2023/09/25 00:29:48;;;;;;;;;;;12.00;99.90;;;;;;5066126;28;20039;-60
2023/09/25 00:32:14;;;;;;;4.65;2.63;;;12.00;99.90;;;;;;5072878;28;19924;-60
2023/09/25 00:34:40;;;;;;;3.28;2.55;;;12.00;99.90;;;;;;5067675;28;20037;-60
2023/09/25 00:37:06;;;;;;;3.20;2.70;;;12.00;99.90;;;;;;5060183;28;20531;-60
2023/09/25 00:39:31;;;;;;;4.53;2.72;;;11.90;99.90;;;;;;5063715;28;20033;-58
2023/09/25 00:41:59;;;;;;;3.72;2.38;;;11.90;99.90;;;;;;5065058;28;20191;-59
2023/09/25 00:44:25;;;;;;;5.40;2.20;;;11.90;99.90;;;;;;5067846;28;20115;-57
2023/09/25 00:46:51;;;;;;;3.80;2.97;;;11.90;99.90;;;;;;5066669;28;20120;-56
2023/09/25 00:49:17;;;;;;;3.70;2.72;;;11.90;99.90;;;;;;5065528;28;20037;-59
2023/09/25 00:51:44;;;;;;;2.83;2.63;;;11.90;99.90;;;;;;5066241;28;20056;-59
2023/09/25 00:54:11;;;;;;;5.32;2.60;;;11.90;99.90;;;;;;5063813;28;20094;-59
2023/09/25 00:56:37;;;;;;;3.78;2.25;;;11.80;99.90;;;;;;5065512;28;20047;-59
2023/09/25 00:59:03;;;;;;;;;;;11.80;99.90;;;;;;5069329;28;20044;-59
2023/09/25 01:01:29;;;;;;;3.40;3.00;;;11.80;99.90;;;;;;5063930;28;19920;-60
2023/09/25 01:03:54;;;;;;;3.95;2.47;;;11.80;99.90;;;;;;5065300;28;20029;-60
2023/09/25 01:06:20;;;;;;;4.53;1.90;;;11.70;99.90;;;;;;5063658;28;20037;-58
2023/09/25 01:08:46;;;;;;;3.20;2.33;;;11.80;99.90;;;;;;5067924;28;20281;-57
2023/09/25 01:11:12;;;;;;;3.17;2.77;;;11.70;99.90;;;;;;5066097;28;20048;-57
2023/09/25 01:13:37;;;;;;;2.75;2.50;;;11.70;99.90;;;;;;5061558;28;20287;-56
2023/09/25 01:16:04;;;;;;;5.35;2.65;;;11.70;99.90;;;;;;5066228;28;20482;-56
2023/09/25 01:18:29;;;;;;;10.88;3.33;;;11.70;99.90;;;;;;5063498;28;20518;-57
2023/09/25 01:20:55;;;;;;;5.55;2.83;;;11.80;99.90;;;;;;5066885;28;20041;-60
2023/09/25 01:23:21;;;;;;;5.65;2.65;;;11.80;99.90;;;;;;5060965;28;20036;-58
2023/09/25 01:25:46;;;;;;;3.10;2.00;;;11.80;99.90;;;;;;5065088;28;20036;-59
2023/09/25 01:28:12;;;;;;;4.40;2.55;;;11.80;99.90;;;;;;5063544;28;20459;-58
2023/09/25 01:30:38;;;;;;;4.03;2.57;;;11.80;99.90;;;;;;5061673;28;20037;-58
2023/09/25 01:33:04;;;;;;;3.72;2.63;;;11.80;99.90;;;;;;5065073;28;20807;-60
2023/09/25 01:35:30;;;;;;;3.53;2.83;;;11.80;99.90;;;;;;5063428;28;20128;-58
2023/09/25 01:38:00;;;;;;;3.20;2.30;;;11.70;99.90;;;;;;5060216;28;20215;-58
2023/09/25 01:40:26;;;;;;;3.22;2.85;;;11.70;99.90;;;;;;5068097;28;20037;-59
2023/09/25 01:42:53;;;;;;;3.92;2.60;;;11.70;99.90;;;;;;5068482;28;20036;-57
2023/09/25 01:45:19;;;;;;;2.80;2.25;;;11.60;99.90;;;;;;5058303;28;20032;-58
2023/09/25 01:47:51;;;;;;;2.63;2.42;;;11.60;99.90;;;;;;5057476;28;20528;-58
2023/09/25 01:50:22;;;;;;;3.67;2.72;;;11.50;99.90;;;;;;5059846;28;20051;-59
2023/09/25 01:52:50;;;;;;;4.38;2.35;;;11.50;99.90;;;;;;5066799;28;20033;-59
2023/09/25 01:55:16;;;;;;;3.85;3.30;;;11.50;99.90;;;;;;5059867;28;20041;-57
2023/09/25 01:57:42;;;;;;;4.80;3.08;;;11.40;99.90;;;;;;5067129;28;20059;-58
2023/09/25 02:00:09;;;;;;;3.90;3.03;;;11.40;99.90;;;;;;5063655;28;20048;-59
2023/09/25 02:02:34;;;;;;;3.40;3.17;;;11.40;99.90;;;;;;5068019;28;20032;-56
2023/09/25 02:05:00;;;;;;;3.35;3.05;;;11.40;99.90;;;;;;5062617;28;20045;-58
2023/09/25 02:07:26;;;;;;;4.65;3.15;;;11.30;99.90;;;;;;5066361;28;20123;-58
2023/09/25 02:09:51;;;;;;;3.15;2.85;;;11.30;99.90;;;;;;5062361;28;20414;-57
2023/09/25 02:12:17;;;;;;;5.97;3.40;;;11.20;99.90;;;;;;5066240;28;20408;-58
2023/09/25 02:14:42;;;;;;;6.07;3.00;;;11.20;99.90;;;;;;5066194;28;20044;-56
2023/09/25 02:17:08;;;;;;;5.40;4.07;;;11.20;99.90;;;;;;5065463;28;20553;-59
2023/09/25 02:19:34;;;;;;;4.68;3.65;;;11.20;99.90;;;;;;5062175;28;20064;-59
2023/09/25 02:22:00;;;;;;;4.75;3.83;;;11.10;99.90;;;;;;5065082;28;20499;-59
2023/09/25 02:24:26;;;;;;;5.47;3.50;;;11.10;99.90;;;;;;5067048;28;20041;-58
2023/09/25 02:26:51;;;;;;;4.25;3.67;;;11.10;99.90;;;;;;5061523;28;20083;-57
2023/09/25 02:29:17;;;;;;;5.93;3.65;;;11.10;99.90;;;;;;5068646;28;20044;-55
2023/09/25 02:31:42;;;;;;;6.03;3.92;;;11.10;99.90;;;;;;5064448;28;20045;-57
2023/09/25 02:34:14;;;;;;;6.95;3.20;;;11.10;99.90;;;;;;5067626;28;20036;-58
2023/09/25 02:36:40;;;;;;;6.15;3.95;;;11.00;99.90;;;;;;5054834;28;20045;-60
2023/09/25 02:39:06;;;;;;;;;;;11.00;99.90;;;;;;5064372;28;20056;-59
2023/09/25 02:41:32;;;;;;;4.38;3.88;;;11.00;99.90;;;;;;5067389;28;19974;-59
2023/09/25 02:43:58;;;;;;;11.35;4.03;;;11.00;99.90;;;;;;5065891;28;20064;-58
2023/09/25 02:46:24;;;;;;;4.50;3.55;;;10.90;99.90;;;;;;5063250;28;20128;-57
2023/09/25 02:48:49;;;;;;;4.00;3.43;;;10.90;99.90;;;;;;5063690;28;20115;-58
2023/09/25 02:51:15;;;;;;;3.73;3.40;;;10.90;99.90;;;;;;5059811;28;20379;-59
2023/09/25 02:53:40;;;;;;;3.80;3.50;;;10.90;99.90;;;;;;5065611;28;20044;-56
2023/09/25 02:56:06;;;;;;;4.77;3.80;;;10.90;99.90;;;;;;5062882;28;20056;-58
2023/09/25 02:58:31;;;;;;;8.30;4.57;;;10.90;99.90;;;;;;5064869;28;20287;-58
2023/09/25 03:01:00;;;;;;;5.20;4.10;;;10.90;99.90;;;;;;5060494;28;20385;-55
2023/09/25 03:03:29;;;;;;;4.13;3.80;;;11.00;99.90;;;;;;5064372;28;20024;-60
2023/09/25 03:05:54;;;;;;;7.90;4.82;;;11.00;99.90;;;;;;5060494;28;20432;-60
2023/09/25 03:08:20;;;;;;;6.37;4.30;;;11.00;99.90;;;;;;5067832;28;20063;-59
2023/09/25 03:10:46;;;;;;;5.82;4.05;;;11.00;99.90;;;;;;5072119;28;20299;-59
2023/09/25 03:13:11;;;;;;;5.20;4.30;;;11.00;99.90;;;;;;5040449;28;20051;-59
2023/09/25 03:15:37;;;;;;;4.50;4.10;;;11.00;99.90;;;;;;5063510;28;20314;-58
2023/09/25 03:18:04;;;;;;;10.45;3.92;;;11.10;99.90;;;;;;5060232;28;20415;-60
2023/09/25 03:20:29;;;;;;;4.18;3.78;;;11.10;99.90;;;;;;5061926;28;20135;-58
2023/09/25 03:22:55;;;;;;;6.43;3.47;;;11.00;99.90;;;;;;5059169;28;20139;-60
2023/09/25 03:25:21;;;;;;;4.82;3.25;;;11.10;99.90;;;;;;5065435;28;20037;-58
2023/09/25 03:27:48;;;;;;;;;;;11.10;99.90;;;;;;5061520;28;20037;-58
2023/09/25 03:30:14;;;;;;;7.75;4.25;;;11.10;99.90;;;;;;5060253;28;19958;-57
2023/09/25 03:32:39;;;;;;;4.00;3.45;;;11.00;99.90;;;;;;5066861;28;20110;-59
2023/09/25 03:35:05;;;;;;;4.68;4.32;;;11.00;99.90;;;;;;5061004;28;20033;-59
2023/09/25 03:37:31;;;;;;;5.97;5.03;;;11.00;99.90;;;;;;5056665;28;20037;-60
2023/09/25 03:39:57;;;;;;;9.98;4.68;;;11.00;99.90;;;;;;5057015;28;20037;-57
2023/09/25 03:42:23;;;;;;;8.05;4.35;;;10.90;99.90;;;;;;5069449;28;20047;-58
2023/09/25 03:44:50;;;;;;;5.57;5.07;;;10.90;99.90;;;;;;5069629;28;20441;-58
2023/09/25 03:47:16;;;;;;;4.85;4.45;;;10.90;99.90;;;;;;5068294;28;20060;-57
2023/09/25 03:49:43;;;;;;;6.95;5.00;;;10.90;99.90;;;;;;5063621;28;20037;-58
2023/09/25 03:52:09;;;;;;;7.07;4.90;;;10.90;99.90;;;;;;5059665;28;20435;-57
2023/09/25 03:54:35;;;;;;;8.13;5.37;;;10.90;99.90;;;;;;5065939;28;20037;-57
2023/09/25 03:57:00;;;;;;;5.13;4.72;;;10.90;99.90;;;;;;5062776;28;20293;-58
2023/09/25 03:59:26;;;;;;;5.72;5.20;;;10.90;99.90;;;;;;5062269;28;20037;-56
2023/09/25 04:01:52;;;;;;;6.40;5.60;;;10.90;99.90;;;;;;5061657;28;20028;-56
2023/09/25 04:04:17;;;;;;;6.60;6.00;;;11.00;99.90;;;;;;5050750;28;20052;-55
2023/09/25 04:06:43;;;;;;;8.57;6.60;;;11.00;99.90;;;;;;5059174;28;20287;-55
2023/09/25 04:09:09;;;;;;;7.70;5.72;;;11.00;99.90;;;;;;5054447;28;20039;-59
2023/09/25 04:11:34;;;;;;;7.72;6.22;;;11.10;99.90;;;;;;5061441;28;20040;-58
2023/09/25 04:14:01;;;;;;;7.90;5.50;;;11.10;99.90;;;;;;5058371;28;20124;-60
2023/09/25 04:16:28;;;;;;;6.70;5.88;;;11.10;99.90;;;;;;5060991;28;20045;-58
2023/09/25 04:18:58;;;;;;;;;;;11.20;99.90;;;;;;5040896;28;20491;-56
2023/09/25 04:21:24;;;;;;;5.95;5.30;;;11.20;99.90;;;;;;5061797;28;19927;-55
2023/09/25 04:23:49;;;;;;;5.13;4.55;;;11.20;99.90;;;;;;5059031;28;20574;-57
2023/09/25 04:26:16;;;;;;;5.00;4.60;;;11.20;99.90;;;;;;5062177;28;20427;-59
2023/09/25 04:28:42;;;;;;;5.25;4.65;;;11.20;99.90;;;;;;5061134;28;20055;-58
2023/09/25 04:31:10;;;;;;;7.45;4.93;;;11.30;99.90;;;;;;5057907;28;20040;-58
2023/09/25 04:33:38;;;;;;;5.57;4.38;;;11.30;99.90;;;;;;5060378;28;20561;-58
2023/09/25 04:36:05;;;;;;;5.80;4.10;;;11.20;99.90;;;;;;5057318;28;20044;-57
2023/09/25 04:38:31;;;;;;;5.85;4.57;;;11.20;99.90;;;;;;5056983;28;20053;-59
2023/09/25 04:40:57;;;;;;;10.38;4.55;;;11.20;99.90;;;;;;5062828;28;20426;-59
2023/09/25 04:43:23;;;;;;;5.60;3.88;;;11.20;99.90;;;;;;5057064;28;20039;-60
2023/09/25 04:45:51;;;;;;;;;;;11.20;99.90;;;;;;5055708;28;20526;-60
2023/09/25 04:48:24;;;;;;;6.03;4.45;;;11.10;99.90;;;;;;5058388;28;19979;-59
2023/09/25 04:50:50;;;;;;;4.70;4.25;;;11.20;99.90;;;;;;5057947;28;20041;-57
2023/09/25 04:53:15;;;;;;;4.88;4.30;;;11.20;99.90;;;;;;5060628;28;20040;-56
2023/09/25 04:55:41;;;;;;;5.78;4.18;;;11.20;99.90;;;;;;5053351;28;20045;-58
2023/09/25 04:58:07;;;;;;;3.95;3.58;;;11.20;99.90;;;;;;5060764;28;20075;-57
2023/09/25 05:00:33;;;;;;;4.53;4.13;;;11.20;99.90;;;;;;5056570;28;20044;-58
2023/09/25 05:03:00;;;;;;;5.05;3.53;;;11.20;99.90;;;;;;5062448;28;20093;-58
2023/09/25 05:05:26;;;;;;;6.30;3.80;;;11.20;99.90;;;;;;5059699;28;20044;-59
2023/09/25 05:07:54;;;;;;;4.60;3.25;;;11.30;99.90;;;;;;5063044;28;20380;-57
2023/09/25 05:10:26;;;;;;;5.40;2.85;;;11.30;99.90;;;;;;5057998;28;20526;-58
2023/09/25 05:12:52;;;;;;;7.00;3.42;;;11.30;99.90;;;;;;5059955;28;20059;-58
2023/09/25 05:15:18;;;;;;;;;;;11.40;99.90;;;;;;5061317;28;20772;-57
2023/09/25 05:17:45;;;;;;;5.82;2.88;;;11.40;99.90;;;;;;5064179;28;19916;-56
2023/09/25 05:20:22;;;;;;;3.70;2.95;;;11.50;99.90;;;;;;5060198;28;20063;-58
2023/09/25 05:22:50;;;;;;;4.65;3.10;;;11.50;99.90;;;;;;5055452;28;20534;-57
2023/09/25 05:25:18;;;;;;;5.25;2.80;;;11.50;99.90;;;;;;5059694;28;20052;-58
2023/09/25 05:27:49;;;;;;;4.43;3.28;;;11.50;99.90;;;;;;5055632;28;20035;-59
2023/09/25 05:30:17;;;;;;;5.38;2.83;;;11.50;99.90;;;;;;5060827;28;20094;-59
2023/09/25 05:32:48;;;;;;;3.47;2.65;;;11.60;99.90;;;;;;5042632;28;20032;-58
2023/09/25 05:35:14;;;;;;;3.33;3.03;;;11.60;99.90;;;;;;5060353;28;20115;-59
2023/09/25 05:37:41;;;;;;;4.55;2.75;;;11.60;99.90;;;;;;5060768;28;20047;-58
2023/09/25 05:40:10;;;;;;;3.28;2.65;;;11.60;99.90;;;;;;5061678;28;20620;-55
2023/09/25 05:42:39;;;;;;;2.72;2.47;;;11.60;99.90;;;;;;5061034;28;20106;-57
2023/09/25 05:45:05;;;;;;;3.55;3.10;;;11.70;99.90;;;;;;5059389;28;20072;-59
2023/09/25 05:47:32;;;;;;;7.72;3.13;;;11.70;99.90;;;;;;5063785;28;20048;-58
2023/09/25 05:49:57;;;;;;;7.22;2.88;;;11.70;99.90;;;;;;5066734;28;20072;-60
2023/09/25 05:52:23;;;;;;;3.90;2.70;;;11.70;99.90;;;;;;5053927;28;20079;-60
2023/09/25 05:54:49;;;;;;;5.70;2.45;;;11.70;99.90;;;;;;5062998;28;20075;-60
2023/09/25 05:57:15;;;;;;;3.05;2.10;;;11.80;99.90;;;;;;5057129;28;20592;-58
2023/09/25 05:59:40;;;;;;;3.08;2.22;;;11.90;99.90;;;;;;5050237;28;20039;-57
2023/09/25 06:02:07;;;;;;;3.67;3.38;;;11.90;99.90;;;;;;5052864;28;20047;-57
2023/09/25 06:04:36;;;;;;;6.13;2.50;;;12.00;99.90;;;;;;5056185;28;20041;-57
2023/09/25 06:07:03;;;;;;;2.80;2.42;;;12.10;99.90;;;;;;5057610;28;20076;-59
2023/09/25 06:09:29;;;;;;;3.05;2.42;;;12.20;99.90;;;;;;5058819;28;20082;-57
2023/09/25 06:11:55;;;;;;;3.97;2.50;;;12.30;99.90;;;;;;5052512;28;20051;-58
2023/09/25 06:14:21;;;;;;;2.60;2.33;;;12.40;99.90;;;;;;5057334;28;20036;-55
2023/09/25 06:16:48;;;;;;;4.25;2.28;;;12.50;99.90;;;;;;5059056;28;20033;-59
2023/09/25 06:19:14;;;;;;;5.15;1.63;;;12.60;99.90;;;;;;5043966;28;20099;-60
2023/09/25 06:21:40;;;;;;;3.20;1.70;;;12.70;99.90;;;;;;5047062;28;20045;-58
2023/09/25 06:24:09;;;;;;;5.35;2.35;;;12.60;99.90;;;;;;5054342;28;20083;-57
2023/09/25 06:26:35;;;;;;;4.97;2.60;;;12.70;99.90;;;;;;5055120;28;20476;-56
2023/09/25 06:29:01;;;;;;;4.57;2.22;;;12.70;99.90;;;;;;5051801;28;20079;-58
2023/09/25 06:31:27;;;;;;;3.28;2.42;;;12.70;99.90;;;;;;5053258;28;20072;-56
2023/09/25 06:33:53;;;;;;;;;;;12.70;99.90;;;;;;5054074;28;20394;-57
2023/09/25 06:36:19;;;;;;;2.47;1.63;;;12.60;99.90;;;;;;5054958;28;20007;-57
2023/09/25 06:38:45;;;;;;;2.10;1.60;;;12.70;99.90;;;;;;5051528;28;20411;-58
2023/09/25 06:41:11;;;;;;;2.28;1.90;;;12.70;99.90;;;;;;5056375;28;20036;-58
2023/09/25 06:43:37;;;;;;;2.50;1.83;;;12.80;99.90;;;;;;5055498;28;20064;-59
2023/09/25 06:46:03;;;;;;;;;;;12.80;99.90;;;;;;5051012;28;20043;-60
2023/09/25 06:48:29;;;;;;;4.13;1.98;;;12.90;99.90;;;;;;5058832;28;20406;-59
2023/09/25 06:50:54;;;;;;;2.43;2.00;;;12.90;99.90;;;;;;5068629;28;20048;-57
2023/09/25 06:53:20;;;;;;;2.07;1.60;;;13.00;99.90;;;;;;5068693;28;20270;-57
2023/09/25 06:55:46;;;;;;;2.35;2.15;;;13.10;99.90;;;;;;5055154;28;20287;-59
2023/09/25 06:58:12;;;;;;;4.32;2.15;;;13.10;99.90;;;;;;5058801;28;20036;-56
2023/09/25 07:00:38;;;;;;;4.35;2.03;;;13.20;99.90;;;;;;5053255;28;20476;-58
2023/09/25 07:03:03;;;;;;;2.97;1.83;;;13.30;99.90;;;;;;5050343;28;20032;-60
2023/09/25 07:05:29;;;;;;;4.75;2.40;;;13.40;99.90;;;;;;5053753;28;20216;-59
2023/09/25 07:07:56;;;;;;;2.22;1.75;;;13.40;99.90;;;;;;5051373;28;20041;-61
2023/09/25 07:10:22;;;;;;;3.25;1.73;;;13.50;99.90;;;;;;5045949;28;20033;-61
2023/09/25 07:12:48;;;;;;;4.75;1.58;;;13.50;99.90;;;;;;5042939;28;20039;-59
2023/09/25 07:15:13;;;;;;;2.72;1.35;;;13.60;99.90;;;;;;5051362;28;20111;-59
2023/09/25 07:17:39;;;;;;;3.08;1.55;;;13.70;99.90;;;;;;5047246;28;20511;-58
2023/09/25 07:20:05;;;;;;;2.30;1.90;;;13.70;99.90;;;;;;5046003;28;20526;-58
2023/09/25 07:22:31;;;;;;;;;;;13.80;99.90;;;;;;5052720;28;20036;-60
2023/09/25 07:24:57;;;;;;;18.77;2.97;;;13.90;99.90;;;;;;5043816;28;19921;-58
2023/09/25 07:27:23;;;;;;;3.28;1.10;;;14.00;99.90;;;;;;5050906;28;20086;-59
2023/09/25 07:29:48;;;;;;;5.88;1.52;;;14.10;99.90;;;;;;5058950;28;20028;-61
2023/09/25 07:32:15;;;;;;;2.13;1.75;;;14.20;99.90;;;;;;5056684;28;20591;-59
2023/09/25 07:34:45;;;;;;;1.52;1.10;;;14.30;99.90;;;;;;5042834;28;20067;-58
2023/09/25 07:37:12;;;;;;;5.85;1.13;;;14.40;99.90;;;;;;5044053;28;20041;-61
2023/09/25 07:39:40;;;;;;;3.15;0.85;;;14.60;99.90;;;;;;5041850;28;20041;-59
2023/09/25 07:42:09;;;;;;;2.50;1.30;;;14.70;99.90;;;;;;5042198;28;20083;-57
2023/09/25 07:44:35;;;;;;;1.83;0.95;;;14.80;99.90;;;;;;5043598;28;20055;-58
2023/09/25 07:47:06;;;;;;;2.63;0.85;;;14.90;99.90;;;;;;5038910;28;20543;-59
2023/09/25 07:49:38;;;;;;;3.20;1.27;;;15.00;99.90;;;;;;5041403;28;20117;-60
2023/09/25 07:52:10;;;;;;;1.60;0.90;;;15.10;99.90;;;;;;5044572;28;20571;-60
2023/09/25 07:54:37;;;;;;;1.45;0.50;;;15.20;99.90;;;;;;5043087;28;20033;-60
2023/09/25 07:57:02;;;;;;;;;;;15.30;99.90;;;;;;5042249;28;20079;-61
2023/09/25 07:59:28;;;;;;;3.17;0.70;;;15.30;99.90;;;;;;5044924;28;19956;-58
2023/09/25 08:01:55;;;;;;;4.13;1.02;;;15.40;99.90;;;;;;5046716;28;20123;-61
2023/09/25 08:04:21;;;;;;;3.00;1.05;;;15.40;99.90;;;;;;5044861;28;20491;-60
2023/09/25 08:06:46;;;;;;;1.73;0.60;;;15.50;99.90;;;;;;5042749;28;20515;-59
2023/09/25 08:09:13;;;;;;;2.22;0.57;;;15.60;99.90;;;;;;5043472;28;20118;-60
2023/09/25 08:11:42;;;;;;;4.35;0.65;;;15.70;99.90;;;;;;5039552;28;20041;-60
2023/09/25 08:14:08;;;;;;;3.10;0.93;;;15.70;99.90;;;;;;5023856;28;20059;-61
2023/09/25 08:16:34;;;;;;;3.08;0.95;;;15.80;99.90;;;;;;5044967;28;20029;-60
2023/09/25 08:19:00;;;;;;;2.60;0.50;;;15.80;99.90;;;;;;5037697;28;20454;-59
2023/09/25 08:21:26;;;;;;;2.85;0.85;;;15.90;99.90;;;;;;5040104;28;20129;-60
2023/09/25 08:23:51;;;;;;;2.10;0.90;;;15.90;99.90;;;;;;5040094;28;20128;-61
2023/09/25 08:26:17;;;;;;;6.97;1.30;;;15.90;99.90;;;;;;5042043;28;20495;-58
2023/09/25 08:28:42;;;;;;;2.65;0.88;;;16.00;99.90;;;;;;5039461;28;20860;-61
2023/09/25 08:31:08;;;;;;;2.22;0.90;;;16.00;99.90;;;;;;5037142;28;20048;-60
2023/09/25 08:33:34;;;;;;;1.30;0.65;;;16.00;99.90;;;;;;5041119;28;20036;-58
2023/09/25 08:35:59;;;;;;;8.10;0.95;;;16.10;99.90;;;;;;5045933;28;20048;-58
2023/09/25 08:38:25;;;;;;;3.15;1.23;;;16.10;99.90;;;;;;5043942;28;20748;-58
2023/09/25 08:40:51;;;;;;;1.40;0.70;;;16.30;99.90;;;;;;5044162;28;20083;-58
2023/09/25 08:43:18;;;;;;;1.10;0.70;;;16.40;99.90;;;;;;5059251;28;20603;-59
2023/09/25 08:45:45;;;;;;;1.55;1.05;;;16.50;99.90;;;;;;5040549;28;20029;-59
2023/09/25 08:48:11;;;;;;;;;;;16.60;99.90;;;;;;5045175;28;20048;-58
2023/09/25 08:50:38;;;;;;;3.40;1.10;;;16.70;99.90;;;;;;5044188;28;19916;-58
2023/09/25 08:53:04;;;;;;;1.58;0.70;;;16.90;99.90;;;;;;5037839;28;20119;-57
2023/09/25 08:55:31;;;;;;;2.88;0.80;;;17.00;99.90;;;;;;5044117;28;20112;-59
2023/09/25 08:57:57;;;;;;;3.42;0.93;;;17.00;99.90;;;;;;5042357;28;20070;-59
2023/09/25 09:00:24;;;;;;;2.35;0.70;;;17.00;99.90;;;;;;5038394;28;20037;-59
2023/09/25 09:02:50;;;;;;;3.30;0.85;;;17.00;99.90;;;;;;5041934;28;20627;-58
2023/09/25 09:05:16;;;;;;;1.88;0.68;;;17.10;99.90;;;;;;5044341;28;20069;-58
2023/09/25 09:08:02;;;;;;;2.97;1.00;;;17.00;99.90;;;;;;5039581;28;20464;-58
2023/09/25 09:10:32;;;;;;;2.20;0.60;;;17.10;99.90;;;;;;5041134;28;20033;-59
2023/09/25 09:12:58;;;;;;;2.25;0.82;;;17.20;99.90;;;;;;5045362;28;20041;-57
2023/09/25 09:15:28;;;;;;;2.50;0.50;;;17.30;99.90;;;;;;5041271;28;20049;-59
2023/09/25 09:17:55;;;;;;;2.80;0.75;;;17.40;99.90;;;;;;5040233;28;20412;-57
2023/09/25 09:20:23;;;;;;;2.42;0.73;;;17.50;99.90;;;;;;5040917;28;20175;-57
2023/09/25 09:22:52;;;;;;;1.48;0.90;;;17.60;99.90;;;;;;5042601;28;20761;-58
2023/09/25 09:25:27;;;;;;;4.15;0.70;;;17.70;99.90;;;;;;5042567;28;20033;-58
2023/09/25 09:27:53;;;;;;;2.72;0.70;;;17.80;99.90;;;;;;5037688;28;20040;-56
2023/09/25 09:30:23;;;;;;;3.80;1.00;;;17.80;99.90;;;;;;5042227;28;20025;-57
2023/09/25 09:32:52;;;;;;;4.28;0.90;;;18.00;99.90;;;;;;5041784;28;20037;-58
2023/09/25 09:35:23;;;;;;;2.33;1.00;;;18.10;99.90;;;;;;5027432;28;20029;-56
2023/09/25 09:37:50;;;;;;;2.40;0.80;;;18.20;99.90;;;;;;5042705;28;20415;-56
2023/09/25 09:40:17;;;;;;;2.30;0.75;;;18.30;99.90;;;;;;5041954;28;21094;-58
2023/09/25 09:42:43;;;;;;;6.57;0.70;;;18.30;99.90;;;;;;5040840;28;20098;-57
2023/09/25 09:45:09;;;;;;;2.10;0.73;;;18.30;99.50;;;;;;5043130;28;20036;-57
2023/09/25 09:47:43;;;;;;;2.50;0.85;;;18.30;99.90;;;;;;5043206;28;20079;-59
2023/09/25 09:50:13;;;;;;;3.13;0.90;;;18.30;99.80;;;;;;5050287;28;20490;-56
2023/09/25 09:52:39;;;;;;;1.52;0.73;;;18.40;99.90;;;;;;5050283;28;20048;-57
2023/09/25 09:55:07;;;;;;;2.00;0.90;;;18.40;99.90;;;;;;5046553;28;20133;-58
2023/09/25 09:57:34;;;;;;;3.53;1.40;;;18.40;99.90;;;;;;5040402;28;20037;-56
2023/09/25 09:59:59;;;;;;;;;;;18.40;99.90;;;;;;5047821;28;20401;-55
2023/09/25 10:02:28;;;;;;;1.80;0.82;;;18.50;99.90;;;;;;5048304;28;19920;-59
2023/09/25 10:04:56;;;;;;;2.42;0.68;;;18.50;99.90;;;;;;5039785;28;20245;-58
2023/09/25 10:07:21;;;;;;;4.05;1.10;;;18.60;99.50;;;;;;5044957;28;20399;-56
2023/09/25 10:10:06;;;;;;;2.70;0.77;;;18.60;99.90;;;;;;5044026;28;20033;-55
2023/09/25 10:12:52;;;;;;;2.85;0.95;;;18.70;99.90;;;;;;5041487;28;20041;-57
2023/09/25 10:15:27;;;;;;;41.50;7.38;;;18.80;99.90;;;;;;5042352;28;20086;-58
2023/09/25 10:17:54;;;;;;;7.13;1.30;;;18.80;99.00;;;;;;5043338;28;20048;-57
2023/09/25 10:20:41;;;;;;;1.55;0.80;;;18.80;99.10;;;;;;5041125;28;20522;-56
2023/09/25 10:23:06;;;;;;;5.82;1.13;;;18.80;98.90;;;;;;5039783;28;20715;-57
2023/09/25 10:25:46;;;;;;;6.30;0.88;;;18.80;99.10;;;;;;5046922;28;20045;-57
2023/09/25 10:28:21;;;;;;;1.25;0.75;;;18.80;99.50;;;;;;5045702;28;20033;-56
2023/09/25 10:30:52;;;;;;;1.55;0.63;;;18.90;99.90;;;;;;5047866;28;20032;-56
2023/09/25 10:33:18;;;;;;;2.65;0.80;;;18.90;99.50;;;;;;5050707;28;20036;-55
2023/09/25 10:35:49;;;;;;;3.15;0.88;;;18.90;98.60;;;;;;5051276;28;20551;-57
2023/09/25 10:38:19;;;;;;;2.95;0.70;;;19.00;99.20;;;;;;5048114;28;20043;-56
2023/09/25 10:40:50;;;;;;;1.92;0.82;;;19.00;98.50;;;;;;5045749;28;20415;-55
2023/09/25 10:43:23;;;;;;;1.77;0.68;;;19.10;99.40;;;;;;5044657;28;20440;-57
2023/09/25 10:45:49;;;;;;;3.42;0.73;;;19.20;99.20;;;;;;5042555;28;20052;-58
2023/09/25 10:48:16;;;;;;;1.40;0.70;;;19.30;99.00;;;;;;5044900;28;20514;-58
2023/09/25 10:50:43;;;;;;;3.53;0.80;;;19.30;98.90;;;;;;5050337;28;20137;-56
2023/09/25 10:53:14;;;;;;;1.92;0.70;;;19.30;99.00;;;;;;5052606;28;20527;-58
2023/09/25 10:55:40;;;;;;;3.17;0.70;;;19.50;99.20;;;;;;5051607;28;20918;-58
2023/09/25 10:58:08;;;;;;;2.13;0.75;;;19.50;99.90;;;;;;5053447;28;20381;-57
2023/09/25 11:00:37;;;;;;;4.75;1.05;;;19.60;98.90;;;;;;5052069;28;20044;-58
2023/09/25 11:03:03;;;;;;;3.30;0.63;;;19.50;99.00;;;;;;5051687;28;20497;-57
2023/09/25 11:05:29;;;;;;;;;;;19.50;98.90;;;;;;5050111;28;20036;-57
2023/09/25 11:07:55;;;;;;;7.43;0.77;;;19.50;98.20;;;;;;5056748;28;19923;-57
2023/09/25 11:10:21;;;;;;;0.90;0.60;;;19.50;98.80;;;;;;5044928;28;20777;-56
2023/09/25 11:12:47;;;;;;;15.32;6.20;;;19.50;98.90;;;;;;5049256;28;20115;-58
2023/09/25 11:15:17;;;;;;;1.60;0.50;;;19.50;98.50;;;;;;5048789;28;20436;-57
2023/09/25 11:17:45;;;;;;;5.68;0.93;;;19.50;97.80;;;;;;5043551;28;20041;-57
2023/09/25 11:20:12;;;;;;;5.25;0.82;;;19.50;99.00;;;;;;5042914;28;20033;-58
2023/09/25 11:22:41;;;;;;;2.95;0.75;;;19.50;98.50;;;;;;5053569;28;20041;-56
2023/09/25 11:25:12;;;;;;;2.22;0.80;;;19.50;98.20;;;;;;5048844;28;20033;-56
2023/09/25 11:27:38;;;;;;;3.28;0.85;;;19.50;99.20;;;;;;5052062;28;20037;-56
2023/09/25 11:30:14;;;;;;;4.47;0.80;;;19.60;99.10;;;;;;5044754;28;20032;-57
2023/09/25 11:32:42;;;;;;;3.05;0.85;;;19.70;98.60;;;;;;5049906;28;20049;-57
2023/09/25 11:35:12;;;;;;;3.33;1.08;;;19.70;99.40;;;;;;5047445;28;20037;-58
2023/09/25 11:37:58;;;;;;;3.60;0.77;;;19.80;98.90;;;;;;5048793;28;20036;-55
2023/09/25 11:40:25;;;;;;;5.80;0.93;;;19.80;98.10;;;;;;5050485;28;20041;-56
2023/09/25 11:42:52;;;;;;;4.38;1.05;;;19.90;98.60;;;;;;5053390;28;20040;-56
2023/09/25 11:45:17;;;;;;;;;;;19.80;97.30;;;;;;5051318;28;20063;-57
2023/09/25 11:47:43;;;;;;;4.18;1.30;;;19.90;98.30;;;;;;5056138;28;19916;-57
2023/09/25 11:50:11;;;;;;;1.45;0.60;;;19.90;98.80;;;;;;5059901;28;20051;-58
2023/09/25 11:52:37;;;;;;;2.10;0.93;;;20.00;99.20;;;;;;5050844;28;20048;-57
2023/09/25 11:55:04;;;;;;;2.83;0.85;;;20.10;99.00;;;;;;5053600;28;20059;-58
2023/09/25 11:57:31;;;;;;;7.38;2.50;;;20.20;98.50;;;;;;5052647;28;20105;-57
2023/09/25 11:59:56;;;;;;;3.22;0.68;;;20.20;98.70;;;;;;5052386;28;20503;-57
2023/09/25 12:02:28;;;;;;;1.67;0.63;;;20.30;98.40;;;;;;5053303;28;20049;-57
2023/09/25 12:04:54;;;;;;;2.38;0.50;;;20.30;98.30;;;;;;5046876;28;20143;-56
2023/09/25 12:07:20;;;;;;;;;;;20.30;98.70;;;;;;5047119;28;20577;-56
2023/09/25 12:09:46;;;;;;;5.63;0.98;;;20.40;98.50;;;;;;5051300;28;19916;-57
2023/09/25 12:12:12;;;;;;;2.70;0.88;;;20.50;99.10;;;;;;5056990;28;20037;-56
2023/09/25 12:14:37;;;;;;;4.28;1.05;;;20.50;98.20;;;;;;5054562;28;20044;-57
2023/09/25 12:17:03;;;;;;;;;;;20.50;97.50;;;;;;5053254;28;20044;-58
2023/09/25 12:19:29;;;;;;;3.15;0.95;;;20.60;98.20;;;;;;5055554;28;20006;-58
2023/09/25 12:21:54;;;;;;;2.78;0.57;;;20.60;98.30;;;;;;5055754;28;20373;-57
2023/09/25 12:24:20;;;;;;;;;;;20.70;98.30;;;;;;5048899;28;20033;-57
2023/09/25 12:26:46;;;;;;;11.27;3.65;;;20.70;97.20;;;;;;5051947;28;20322;-56
2023/09/25 12:29:12;;;;;;;;;;;20.70;98.00;;;;;;5049592;28;20185;-56
2023/09/25 12:31:38;;;;;;;2.13;0.90;;;20.70;97.10;;;;;;5043739;28;20286;-57
2023/09/25 12:34:04;;;;;;;;;;;20.70;97.70;;;;;;5050339;28;20295;-57
2023/09/25 12:36:29;;;;;;;2.95;0.75;;;20.70;96.90;;;;;;5048202;28;19920;-58
2023/09/25 12:38:55;;;;;;;2.70;0.90;;;20.70;97.20;;;;;;5043235;28;20447;-58
2023/09/25 12:41:21;;;;;;;3.55;0.55;;;20.70;97.40;;;;;;5051429;28;20115;-61
2023/09/25 12:43:46;;;;;;;;;;;20.70;97.30;;;;;;5053266;28;20041;-61
2023/09/25 12:46:12;;;;;;;1.75;0.85;;;20.70;97.90;;;;;;5053013;28;19916;-57
2023/09/25 12:48:38;;;;;;;2.22;0.63;;;20.80;98.10;;;;;;5051338;28;20035;-59
2023/09/25 12:51:04;;;;;;;;;;;20.90;97.80;;;;;;5052122;28;20060;-61